createdAt,value
2023-07-03T00:01:18.074Z,100959.19
2023-07-03T00:03:44.646Z,100967.41
2023-07-03T00:06:11.220Z,100951.28
2023-07-03T00:08:37.891Z,100952.09
2023-07-03T00:11:06.667Z,100949.94
2023-07-03T00:13:33.369Z,100948.00
2023-07-03T00:16:01.429Z,100943.94
2023-07-03T00:18:29.806Z,100963.34
2023-07-03T00:20:56.875Z,100953.47
2023-07-03T00:23:24.534Z,100953.47
2023-07-03T00:25:52.024Z,100946.38
2023-07-03T00:28:19.630Z,100947.19
2023-07-03T00:30:46.405Z,100946.38
2023-07-03T00:33:13.385Z,100943.63
2023-07-03T00:35:40.611Z,100954.91
2023-07-03T00:38:07.425Z,100959.28
2023-07-03T00:40:34.395Z,100949.41
2023-07-03T00:43:02.071Z,100947.00
2023-07-03T00:45:28.939Z,100955.22
2023-07-03T00:47:55.887Z,100947.00
2023-07-03T00:50:23.152Z,100948.94
2023-07-03T00:57:01.749Z,100945.06
2023-07-03T00:59:29.520Z,100942.66
2023-07-03T01:02:08.881Z,100941.19
2023-07-03T01:04:37.960Z,100942.66
2023-07-03T01:07:33.079Z,100936.66
2023-07-03T01:10:05.004Z,100937.47
2023-07-03T01:12:34.749Z,100938.09
2023-07-03T01:15:05.684Z,100940.53
2023-07-03T01:17:33.278Z,100942.13
2023-07-03T01:20:03.389Z,100929.56
2023-07-03T01:22:47.586Z,100935.38
2023-07-03T01:25:18.375Z,100928.75
2023-07-03T01:27:48.299Z,100939.72
2023-07-03T01:30:17.885Z,100939.72
2023-07-03T01:32:47.371Z,100942.75
2023-07-03T01:35:15.915Z,100940.00
2023-07-03T01:37:47.871Z,100939.22
2023-07-03T01:40:17.193Z,100939.22
2023-07-03T01:42:45.302Z,100938.41
2023-07-03T01:45:11.957Z,100935.66
2023-07-03T01:47:38.827Z,100935.19
2023-07-03T01:50:14.174Z,100926.63
2023-07-03T01:52:44.538Z,100929.69
2023-07-03T01:55:36.566Z,100930.50
2023-07-03T01:58:24.426Z,100923.38
2023-07-03T02:00:55.725Z,100922.28
2023-07-03T02:03:37.280Z,100917.09
2023-07-03T02:06:13.642Z,100925.31
2023-07-03T02:08:40.258Z,100929.19
2023-07-03T02:11:15.615Z,100923.69
2023-07-03T02:13:42.164Z,100932.25
2023-07-03T02:16:08.699Z,100935.78
2023-07-03T02:18:35.416Z,100926.75
2023-07-03T02:21:02.223Z,100939.34
2023-07-03T02:23:28.956Z,100930.59
2023-07-03T02:25:55.480Z,100930.59
2023-07-03T02:28:22.014Z,100937.22
2023-07-03T02:30:48.585Z,100928.50
2023-07-03T02:33:15.145Z,100922.69
2023-07-03T02:35:42.635Z,100927.66
2023-07-03T02:38:10.117Z,100930.41
2023-07-03T02:40:37.363Z,100924.13
2023-07-03T02:43:05.148Z,100928.50
2023-07-03T02:45:38.016Z,100921.09
2023-07-03T02:48:05.002Z,100926.06
2023-07-03T02:50:31.530Z,100918.16
2023-07-03T02:52:58.146Z,100919.44
2023-07-03T02:55:25.126Z,100917.84
2023-07-03T02:57:52.217Z,100924.94
2023-07-03T03:00:18.903Z,100911.56
2023-07-03T03:02:45.730Z,100925.59
2023-07-03T03:05:14.558Z,100918.97
2023-07-03T03:07:41.475Z,100924.44
2023-07-03T03:10:09.026Z,100924.78
2023-07-03T03:12:35.682Z,100926.69
2023-07-03T03:15:02.334Z,100920.38
2023-07-03T03:17:28.938Z,100917.97
2023-07-03T03:19:57.255Z,100918.44
2023-07-03T03:22:24.935Z,100914.44
2023-07-03T03:24:51.465Z,100920.19
2023-07-03T03:27:18.031Z,100926.00
2023-07-03T03:29:44.575Z,100930.53
2023-07-03T03:32:11.123Z,100922.94
2023-07-03T03:34:37.682Z,100923.75
2023-07-03T03:37:04.738Z,100930.34
2023-07-03T03:39:31.286Z,100925.69
2023-07-03T03:41:57.803Z,100924.38
2023-07-03T03:44:24.348Z,100921.66
2023-07-03T03:46:54.153Z,100922.75
2023-07-03T03:49:21.014Z,100920.00
2023-07-03T03:51:47.800Z,100929.38
2023-07-03T03:54:14.445Z,100923.88
2023-07-03T03:56:40.991Z,100923.88
2023-07-03T03:59:07.747Z,100914.84
2023-07-03T04:01:35.622Z,100927.44
2023-07-03T04:04:02.606Z,100929.03
2023-07-03T04:06:29.485Z,100921.66
2023-07-03T04:09:00.024Z,100934.53
2023-07-03T04:11:27.681Z,100927.94
2023-07-03T04:13:54.228Z,100932.09
2023-07-03T04:16:21.631Z,100931.28
2023-07-03T04:18:48.197Z,100936.44
2023-07-03T04:21:16.508Z,100936.16
2023-07-03T04:23:44.444Z,100930.97
2023-07-03T04:26:11.549Z,100931.78
2023-07-03T04:28:38.181Z,100928.56
2023-07-03T04:31:04.902Z,100945.81
2023-07-03T04:33:31.446Z,100938.38
2023-07-03T04:35:58.268Z,100934.53
2023-07-03T04:38:25.303Z,100935.66
2023-07-03T04:40:54.292Z,100929.38
2023-07-03T04:43:21.935Z,100945.00
2023-07-03T04:45:52.169Z,100947.75
2023-07-03T04:48:20.401Z,100940.66
2023-07-03T04:50:49.585Z,100939.84
2023-07-03T04:53:22.020Z,100945.63
2023-07-03T04:55:49.741Z,100945.31
2023-07-03T04:58:16.670Z,100951.91
2023-07-03T05:00:43.300Z,100950.81
2023-07-03T05:03:10.501Z,100956.56
2023-07-03T05:05:37.238Z,100962.06
2023-07-03T05:08:04.120Z,100960.44
2023-07-03T05:10:31.119Z,100956.56
2023-07-03T05:12:57.785Z,100960.72
2023-07-03T05:15:26.106Z,100962.38
2023-07-03T05:17:56.277Z,100960.44
2023-07-03T05:20:23.701Z,100965.94
2023-07-03T05:22:50.716Z,100976.09
2023-07-03T05:25:18.672Z,100964.31
2023-07-03T05:27:46.582Z,100962.66
2023-07-03T05:30:14.110Z,100965.13
2023-07-03T05:32:41.349Z,100965.41
2023-07-03T05:35:09.262Z,100963.47
2023-07-03T05:37:37.736Z,100962.66
2023-07-03T05:40:07.900Z,100964.59
2023-07-03T05:42:35.109Z,100976.38
2023-07-03T05:45:01.858Z,100963.00
2023-07-03T05:47:28.846Z,100964.94
2023-07-03T05:49:55.859Z,100980.25
2023-07-03T05:52:22.730Z,100979.44
2023-07-03T05:54:49.409Z,100973.94
2023-07-03T05:57:16.108Z,100969.88
2023-07-03T05:59:42.643Z,100977.81
2023-07-03T06:02:12.936Z,100981.66
2023-07-03T06:04:39.777Z,100984.09
2023-07-03T06:07:07.302Z,100976.97
2023-07-03T06:09:37.078Z,100971.50
2023-07-03T06:12:04.131Z,100972.34
2023-07-03T06:14:32.550Z,100977.81
2023-07-03T06:17:00.154Z,100970.69
2023-07-03T06:19:28.017Z,100975.69
2023-07-03T06:21:55.072Z,100978.91
2023-07-03T06:24:21.863Z,100975.69
2023-07-03T06:26:48.605Z,100973.75
2023-07-03T06:29:15.910Z,100979.25
2023-07-03T06:31:42.895Z,100977.31
2023-07-03T06:34:09.766Z,100981.97
2023-07-03T06:36:36.428Z,100974.56
2023-07-03T06:39:09.210Z,100975.69
2023-07-03T06:41:36.583Z,100995.69
2023-07-03T06:44:05.308Z,100988.28
2023-07-03T06:46:32.301Z,100982.78
2023-07-03T06:48:59.206Z,100982.78
2023-07-03T06:51:26.087Z,100984.72
2023-07-03T06:53:52.937Z,100989.69
2023-07-03T06:56:20.887Z,100999.56
2023-07-03T06:58:51.155Z,100987.78
2023-07-03T07:01:21.341Z,100998.41
2023-07-03T07:03:48.010Z,101001.16
2023-07-03T07:06:21.029Z,100994.88
2023-07-03T07:08:47.630Z,101005.50
2023-07-03T07:11:19.929Z,100999.22
2023-07-03T07:13:49.167Z,101009.88
2023-07-03T07:16:19.146Z,101017.28
2023-07-03T07:18:48.988Z,101003.91
2023-07-03T07:21:15.591Z,101008.56
2023-07-03T07:23:42.333Z,101010.81
2023-07-03T07:26:08.906Z,101014.06
2023-07-03T07:28:35.584Z,101022.78
2023-07-03T07:31:02.281Z,101016.47
2023-07-03T07:33:29.018Z,101024.69
2023-07-03T07:35:55.651Z,101013.75
2023-07-03T07:38:23.076Z,101011.31
2023-07-03T07:40:50.942Z,101020.34
2023-07-03T07:43:17.523Z,101016.81
2023-07-03T07:45:44.116Z,101031.78
2023-07-03T07:48:10.733Z,101034.53
2023-07-03T07:50:38.004Z,101027.16
2023-07-03T07:53:04.666Z,101023.28
2023-07-03T07:55:31.695Z,101023.28
2023-07-03T07:57:58.246Z,101029.56
2023-07-03T08:00:24.976Z,101019.41
2023-07-03T08:02:51.671Z,101034.75
2023-07-03T08:05:18.286Z,101030.38
2023-07-03T08:07:46.075Z,101029.25
2023-07-03T08:10:13.528Z,101032.00
2023-07-03T08:12:41.078Z,101037.47
2023-07-03T08:15:10.398Z,101035.88
2023-07-03T08:17:37.402Z,101032.84
2023-07-03T08:20:10.043Z,101039.13
2023-07-03T08:22:36.592Z,101031.72
2023-07-03T08:25:03.390Z,101038.81
2023-07-03T08:27:30.004Z,101033.63
2023-07-03T08:29:57.576Z,101032.50
2023-07-03T08:32:24.423Z,101033.31
2023-07-03T08:37:21.337Z,101041.25
2023-07-03T08:39:47.866Z,101036.56
2023-07-03T08:42:24.920Z,101039.59
2023-07-03T08:44:51.766Z,101029.78
2023-07-03T08:47:27.058Z,101037.19
2023-07-03T08:49:55.141Z,101040.75
2023-07-03T08:52:31.985Z,101052.50
2023-07-03T08:54:59.121Z,101049.75
2023-07-03T08:57:27.237Z,101051.69
2023-07-03T08:59:55.086Z,101039.94
2023-07-03T09:02:38.903Z,101048.16
2023-07-03T09:05:24.617Z,101048.63
2023-07-03T09:07:55.371Z,101047.84
2023-07-03T09:10:32.894Z,101053.31
2023-07-03T09:13:12.679Z,101043.47
2023-07-03T09:16:02.250Z,101051.38
2023-07-03T09:18:51.656Z,101042.34
2023-07-03T09:21:18.254Z,101041.53
2023-07-03T09:23:57.502Z,101047.53
2023-07-03T09:26:32.111Z,101045.59
2023-07-03T09:28:59.623Z,101059.31
2023-07-03T09:31:29.236Z,101051.09
2023-07-03T09:33:55.799Z,101050.28
2023-07-03T09:36:24.635Z,101050.28
2023-07-03T09:38:51.250Z,101064.78
2023-07-03T09:41:30.463Z,101044.81
2023-07-03T09:43:57.465Z,101057.38
2023-07-03T09:46:25.365Z,101069.16
2023-07-03T09:48:52.379Z,101069.75
2023-07-03T09:51:31.166Z,101074.16
2023-07-03T09:54:00.322Z,101068.03
2023-07-03T09:56:30.854Z,101080.91
2023-07-03T09:59:04.813Z,101073.81
2023-07-03T10:04:04.615Z,101079.00
2023-07-03T10:07:06.993Z,101079.31
2023-07-03T10:12:13.204Z,101073.50
2023-07-03T10:14:46.238Z,101071.09
2023-07-03T10:17:15.068Z,101081.72
2023-07-03T10:19:46.753Z,101065.59
2023-07-03T10:22:15.479Z,101089.94
2023-07-03T10:24:43.927Z,101087.53
2023-07-03T10:27:10.567Z,101087.22
2023-07-03T10:29:42.889Z,101095.94
2023-07-03T10:32:15.553Z,101085.28
2023-07-03T10:35:03.583Z,101086.41
2023-07-03T10:37:39.870Z,101082.03
2023-07-03T10:40:18.613Z,101085.59
2023-07-03T10:42:57.583Z,101084.66
2023-07-03T10:45:26.740Z,101103.06
2023-07-03T10:48:15.946Z,101094.81
2023-07-03T10:50:45.461Z,101108.53
2023-07-03T10:53:12.048Z,101090.97
2023-07-03T10:55:38.590Z,101090.16
2023-07-03T10:58:35.157Z,101114.81
2023-07-03T11:01:17.357Z,101103.25
2023-07-03T11:04:23.781Z,101096.97
2023-07-03T11:07:04.574Z,101108.72
2023-07-03T11:09:49.855Z,101120.50
2023-07-03T11:12:33.749Z,101097.47
2023-07-03T11:15:16.543Z,101110.06
2023-07-03T11:23:19.626Z,101112.00
2023-07-03T11:28:41.944Z,101117.16
2023-07-03T11:31:10.719Z,101105.69
2023-07-03T11:36:08.492Z,101107.00
2023-07-03T11:43:55.928Z,101121.84
2023-07-03T11:46:25.679Z,101128.44
2023-07-03T11:48:57.562Z,101105.06
2023-07-03T11:51:36.371Z,101085.38
2023-07-03T11:54:17.900Z,101093.63
2023-07-03T11:56:47.817Z,101127.63
2023-07-03T11:59:23.930Z,101109.53
2023-07-03T12:01:52.581Z,101105.69
2023-07-03T12:04:46.171Z,101109.75
2023-07-03T12:07:20.484Z,101120.50
2023-07-03T12:09:51.410Z,101110.34
2023-07-03T12:12:28.086Z,101129.25
2023-07-03T12:15:01.880Z,101124.91
2023-07-03T12:17:34.567Z,101131.19
2023-07-03T12:20:18.291Z,101126.00
2023-07-03T12:22:49.047Z,101124.91
2023-07-03T12:25:21.422Z,101123.78
2023-07-03T12:27:49.357Z,101147.13
2023-07-03T12:30:31.040Z,101133.94
2023-07-03T12:32:59.229Z,101135.84
2023-07-03T12:35:36.850Z,101126.50
2023-07-03T12:38:09.154Z,101139.69
2023-07-03T12:40:46.456Z,101145.19
2023-07-03T12:43:18.953Z,101144.09
2023-07-03T12:45:53.789Z,101140.81
2023-07-03T12:48:23.380Z,101134.22
2023-07-03T12:50:57.273Z,101153.13
2023-07-03T12:53:29.415Z,101091.47
2023-07-03T12:56:03.245Z,101132.91
2023-07-03T12:58:30.290Z,101122.44
2023-07-03T13:01:02.681Z,101130.06
2023-07-03T13:03:29.294Z,101125.69
2023-07-03T13:05:56.254Z,101120.22
2023-07-03T13:08:23.177Z,101121.31
2023-07-03T13:11:03.770Z,101126.31
2023-07-03T13:13:30.705Z,101119.69
2023-07-03T13:15:57.334Z,101121.31
2023-07-03T13:18:24.761Z,101119.41
2023-07-03T13:21:06.975Z,101121.84
2023-07-03T13:23:37.844Z,101100.22
2023-07-03T13:26:10.196Z,101110.56
2023-07-03T13:28:39.788Z,101111.69
2023-07-03T13:31:18.965Z,101127.00
2023-07-03T13:34:03.856Z,101137.47
2023-07-03T13:36:36.394Z,101130.38
2023-07-03T13:39:13.846Z,101130.06
2023-07-03T13:41:42.747Z,101132.47
2023-07-03T13:44:13.493Z,101137.16
2023-07-03T13:46:41.490Z,101133.94
2023-07-03T13:49:09.459Z,101129.53
2023-07-03T13:51:39.089Z,101109.25
2023-07-03T13:54:11.888Z,101115.22
2023-07-03T13:56:41.007Z,101105.06
2023-07-03T13:59:12.266Z,101103.44
2023-07-03T14:01:40.951Z,101100.22
2023-07-03T14:04:08.248Z,101092.81
2023-07-03T14:06:35.001Z,101092.81
2023-07-03T14:09:01.816Z,101085.38
2023-07-03T14:11:28.380Z,101091.69
2023-07-03T14:13:56.627Z,101072.16
2023-07-03T14:16:24.266Z,101091.34
2023-07-03T14:18:50.760Z,101077.16
2023-07-03T14:21:18.341Z,101065.06
2023-07-03T14:23:45.753Z,101063.94
2023-07-03T14:26:13.460Z,101095.75
2023-07-03T14:28:41.036Z,101070.22
2023-07-03T14:31:11.230Z,101055.44
2023-07-03T14:33:37.721Z,101063.66
2023-07-03T14:36:04.609Z,101065.28
2023-07-03T14:38:31.263Z,101061.19
2023-07-03T14:40:59.413Z,101050.22
2023-07-03T14:43:25.994Z,101057.38
2023-07-03T14:45:52.739Z,101059.25
2023-07-03T14:48:20.496Z,101059.25
2023-07-03T14:50:50.510Z,101050.88
2023-07-03T14:53:17.037Z,101074.91
2023-07-03T14:55:43.636Z,101068.31
2023-07-03T14:58:11.425Z,101042.53
2023-07-03T15:00:40.159Z,101048.31
2023-07-03T15:03:07.156Z,101060.09
2023-07-03T15:05:33.978Z,101076.22
2023-07-03T15:08:00.628Z,101056.22
2023-07-03T15:10:27.228Z,101073.28
2023-07-03T15:12:53.843Z,101048.31
2023-07-03T15:15:20.748Z,101044.47
2023-07-03T15:17:51.862Z,101049.13
2023-07-03T15:20:18.531Z,101042.00
2023-07-03T15:22:50.899Z,101040.06
2023-07-03T15:25:17.545Z,101062.53
2023-07-03T15:27:44.132Z,101050.22
2023-07-03T15:30:11.452Z,101041.72
2023-07-03T15:32:38.047Z,101047.19
2023-07-03T15:35:04.885Z,101044.13
2023-07-03T15:37:31.634Z,101043.84
2023-07-03T15:39:58.154Z,101042.19
2023-07-03T15:42:24.829Z,101026.56
2023-07-03T15:44:58.632Z,101032.88
2023-07-03T15:47:26.589Z,101018.84
2023-07-03T15:49:57.449Z,101015.31
2023-07-03T15:52:24.767Z,101006.28
2023-07-03T15:54:52.685Z,101019.19
2023-07-03T15:57:21.010Z,101010.13
2023-07-03T15:59:47.676Z,101013.38
2023-07-03T16:02:14.296Z,101020.78
2023-07-03T16:04:42.778Z,101025.16
2023-07-03T16:07:09.892Z,101013.84
2023-07-03T16:09:36.486Z,101017.72
2023-07-03T16:12:03.117Z,101030.13
2023-07-03T16:14:29.763Z,101012.25
2023-07-03T16:16:56.384Z,101004.81
2023-07-03T16:19:24.428Z,101001.78
2023-07-03T16:21:51.058Z,100989.50
2023-07-03T16:24:17.830Z,100992.75
2023-07-03T16:26:44.381Z,100992.75
2023-07-03T16:29:11.029Z,100980.94
2023-07-03T16:31:40.201Z,100984.22
2023-07-03T16:34:07.858Z,101007.28
2023-07-03T16:36:34.391Z,100978.22
2023-07-03T16:39:05.549Z,100989.69
2023-07-03T16:41:38.815Z,100974.38
2023-07-03T16:44:06.092Z,100965.00
2023-07-03T16:46:32.787Z,100961.13
2023-07-03T16:48:59.966Z,100982.28
2023-07-03T16:51:28.078Z,100970.69
2023-07-03T16:53:55.421Z,100970.16
2023-07-03T16:56:25.623Z,100961.13
2023-07-03T16:58:54.683Z,100954.56
2023-07-03T17:01:23.745Z,100961.13
2023-07-03T17:03:52.098Z,100951.81
2023-07-03T17:06:21.664Z,100969.38
2023-07-03T17:08:49.126Z,100950.19
2023-07-03T17:11:16.227Z,100959.22
2023-07-03T17:13:42.928Z,100964.41
2023-07-03T17:16:10.044Z,100965.53
2023-07-03T17:18:36.854Z,100965.53
2023-07-03T17:21:03.513Z,100947.13
2023-07-03T17:23:30.684Z,100993.75
2023-07-03T17:25:57.243Z,100961.94
2023-07-03T17:28:23.824Z,100990.22
2023-07-03T17:30:51.495Z,100985.81
2023-07-03T17:33:18.321Z,100983.06
2023-07-03T17:35:48.781Z,100973.25
2023-07-03T17:38:16.933Z,100975.97
2023-07-03T17:40:46.551Z,100994.38
2023-07-03T17:43:14.682Z,100983.69
2023-07-03T17:45:42.972Z,100962.88
2023-07-03T17:48:09.780Z,100984.53
2023-07-03T17:50:36.404Z,100978.72
2023-07-03T17:53:02.999Z,100968.38
2023-07-03T17:55:32.258Z,100962.88
2023-07-03T17:57:59.121Z,100960.16
2023-07-03T18:00:25.628Z,100962.88
2023-07-03T18:02:52.299Z,100975.78
2023-07-03T18:05:18.954Z,100977.41
2023-07-03T18:07:45.521Z,100958.84
2023-07-03T18:10:12.372Z,100969.81
2023-07-03T18:12:39.460Z,100973.66
2023-07-03T18:15:07.709Z,101052.06
2023-07-03T18:17:34.459Z,100958.66
2023-07-03T18:20:03.017Z,100964.63
2023-07-03T18:22:29.668Z,100979.47
2023-07-03T18:24:56.222Z,100993.19
2023-07-03T18:27:22.942Z,100966.06
2023-07-03T18:29:49.636Z,100968.78
2023-07-03T18:32:16.318Z,100963.31
2023-07-03T18:34:42.865Z,100956.72
2023-07-03T18:37:09.389Z,100958.97
2023-07-03T18:39:36.084Z,100958.66
2023-07-03T18:42:02.737Z,100950.44
2023-07-03T18:44:29.406Z,100962.50
2023-07-03T18:46:56.205Z,100955.09
2023-07-03T18:49:22.855Z,100950.72
2023-07-03T18:51:50.844Z,100949.94
2023-07-03T18:54:17.593Z,100953.47
2023-07-03T18:56:44.171Z,100950.72
2023-07-03T18:59:11.062Z,100955.09
2023-07-03T19:01:38.743Z,100953.47
2023-07-03T19:04:05.607Z,100957.81
2023-07-03T19:06:32.594Z,100941.69
2023-07-03T19:08:59.316Z,100951.88
2023-07-03T19:11:28.100Z,100947.50
2023-07-03T19:13:54.768Z,100936.53
2023-07-03T19:16:21.621Z,100937.34
2023-07-03T19:18:49.546Z,100942.50
2023-07-03T19:21:17.347Z,100940.91
2023-07-03T19:23:44.531Z,100960.41
2023-07-03T19:26:11.471Z,100949.94
2023-07-03T19:28:38.113Z,100957.66
2023-07-03T19:31:05.751Z,100963.97
2023-07-03T19:33:32.900Z,100955.41
2023-07-03T19:36:00.729Z,100962.31
2023-07-03T19:38:28.168Z,100960.41
2023-07-03T19:40:54.819Z,100959.28
2023-07-03T19:43:22.112Z,100965.38
2023-07-03T19:45:49.079Z,100950.53
2023-07-03T19:48:17.500Z,100947.00
2023-07-03T19:50:44.294Z,100958.78
2023-07-03T19:53:10.914Z,100962.03
2023-07-03T19:55:38.177Z,100948.59
2023-07-03T19:58:05.226Z,100956.34
2023-07-03T20:00:32.283Z,100938.78
2023-07-03T20:02:59.026Z,100945.69
2023-07-03T20:05:25.977Z,100957.47
2023-07-03T20:07:52.796Z,100963.75
2023-07-03T20:10:19.721Z,100965.38
2023-07-03T20:12:51.667Z,100968.94
2023-07-03T20:15:22.708Z,100966.19
2023-07-03T20:17:50.068Z,100987.31
2023-07-03T20:20:16.729Z,100975.22
2023-07-03T20:22:44.695Z,100986.50
2023-07-03T20:25:11.739Z,100990.06
2023-07-03T20:27:38.994Z,101013.59
2023-07-03T20:30:06.613Z,101033.59
2023-07-03T20:32:34.799Z,101027.63
2023-07-03T20:35:03.027Z,101003.25
2023-07-03T20:37:29.717Z,101011.47
2023-07-03T20:39:58.937Z,101008.44
2023-07-03T20:42:28.177Z,101001.34
2023-07-03T20:44:56.516Z,101027.09
2023-07-03T20:47:25.938Z,101016.94
2023-07-03T20:49:55.949Z,101025.16
2023-07-03T20:52:23.557Z,101022.44
2023-07-03T20:55:05.981Z,101032.59
2023-07-03T20:57:34.557Z,101032.59
2023-07-03T21:00:02.160Z,101035.66
2023-07-03T21:02:29.183Z,101041.63
2023-07-03T21:04:56.056Z,101030.16
2023-07-03T21:07:22.893Z,101021.94
2023-07-03T21:09:49.550Z,101027.72
2023-07-03T21:12:16.106Z,101021.13
2023-07-03T21:14:42.727Z,101020.31
2023-07-03T21:17:09.295Z,101017.06
2023-07-03T21:19:35.797Z,101019.50
2023-07-03T21:22:02.295Z,101013.19
2023-07-03T21:24:28.960Z,101012.41
2023-07-03T21:26:55.480Z,101018.19
2023-07-03T21:29:22.139Z,101023.97
2023-07-03T21:31:48.681Z,101009.97
2023-07-03T21:34:15.236Z,101016.25
2023-07-03T21:36:42.212Z,101020.63
2023-07-03T21:39:10.750Z,101003.69
2023-07-03T21:41:38.106Z,101019.31
2023-07-03T21:44:17.067Z,101009.47
2023-07-03T21:46:44.282Z,101007.84
2023-07-03T21:49:13.309Z,101007.84
2023-07-03T21:51:40.002Z,101007.53
2023-07-03T21:54:06.622Z,101005.09
2023-07-03T21:56:33.335Z,101007.03
2023-07-03T21:59:04.794Z,101001.56
2023-07-03T22:01:34.365Z,101007.03
2023-07-03T22:04:02.571Z,101011.72
2023-07-03T22:06:29.171Z,101010.06
2023-07-03T22:08:56.822Z,101003.78
2023-07-03T22:11:24.462Z,101004.91
2023-07-03T22:13:51.860Z,101010.06
2023-07-03T22:16:19.487Z,101014.47
2023-07-03T22:18:46.215Z,101016.69
2023-07-03T22:21:13.597Z,101024.41
2023-07-03T22:23:40.323Z,101018.09
2023-07-03T22:26:07.926Z,101013.13
2023-07-03T22:28:34.721Z,101010.72
2023-07-03T22:31:01.367Z,101012.63
2023-07-03T22:33:29.410Z,101019.22
2023-07-03T22:35:56.303Z,101017.59
2023-07-03T22:38:23.107Z,101016.00
2023-07-03T22:40:51.502Z,101014.88
2023-07-03T22:43:18.906Z,101015.66
2023-07-03T22:45:45.528Z,101004.72
2023-07-03T22:48:12.208Z,101017.94
2023-07-03T22:50:42.800Z,101014.34
2023-07-03T22:53:10.656Z,101020.16
2023-07-03T22:55:41.273Z,101013.53
2023-07-03T22:58:10.141Z,101013.88
2023-07-03T23:00:40.244Z,101018.22
2023-07-03T23:03:08.440Z,101014.66
2023-07-03T23:05:50.482Z,101020.47
2023-07-03T23:08:17.732Z,101022.88
2023-07-03T23:10:55.856Z,101021.56
2023-07-03T23:13:24.065Z,101021.56
2023-07-03T23:15:59.501Z,101018.81
2023-07-03T23:18:29.166Z,101018.00
2023-07-03T23:21:00.617Z,101025.44
2023-07-03T23:23:30.395Z,101024.63
2023-07-03T23:26:03.074Z,101028.16
2023-07-03T23:28:35.759Z,101026.25
2023-07-03T23:31:11.172Z,101041.06
2023-07-03T23:33:39.624Z,101040.53
2023-07-03T23:36:10.677Z,101053.16
2023-07-03T23:38:40.220Z,101053.97
2023-07-03T23:41:07.235Z,101050.69
2023-07-03T23:43:34.326Z,101047.66
2023-07-03T23:46:04.406Z,101040.88
2023-07-03T23:48:32.841Z,101047.16
2023-07-03T23:51:02.054Z,101047.16
2023-07-03T23:53:29.341Z,101059.25
2023-07-03T23:55:56.397Z,101048.28
2023-07-03T23:58:23.129Z,101065.84
